Time;durP1;ratioP1;P1;durP2;ratioP2;P2;SDS_P1;SDS_P2;PMS_P1;PMS_P2;Temp;Humidity;BMP_temperature;BMP_pressure;BME280_temperature;BME280_humidity;BME280_pressure;Samples;Min_cycle;Max_cycle;Signal;HPM_P1;HPM_P2
2023/03/22 00:02:20;;;;;;;8.40;7.07;;;;;;;8.62;81.54;94458.91;5093801;28;20102;-75
2023/03/22 00:04:46;;;;;;;8.98;7.07;;;;;;;8.58;81.37;94445.41;5111673;28;20096;-74
2023/03/22 00:07:11;;;;;;;8.55;7.30;;;;;;;8.53;80.93;94442.34;5110876;28;20032;-74
2023/03/22 00:09:36;;;;;;;10.40;7.82;;;;;;;8.49;81.56;94441.75;5111322;28;20081;-74
2023/03/22 00:12:02;;;;;;;8.35;6.68;;;;;;;8.54;81.24;94438.81;5109992;28;20032;-74
2023/03/22 00:14:28;;;;;;;8.82;6.97;;;;;;;8.59;81.47;94456.56;5111405;28;20032;-74
2023/03/22 00:16:53;;;;;;;8.32;6.50;;;;;;;8.48;81.07;94440.13;5112651;28;20417;-74
2023/03/22 00:19:18;;;;;;;9.02;6.45;;;;;;;8.59;80.82;94453.97;5111523;28;20409;-74
2023/03/22 00:21:45;;;;;;;8.40;6.25;;;;;;;8.61;80.67;94455.50;5110402;28;20436;-74
2023/03/22 00:24:11;;;;;;;8.23;6.63;;;;;;;8.58;80.74;94449.72;5111405;28;20035;-74
2023/03/22 00:26:37;;;;;;;8.15;6.30;;;;;;;8.59;80.61;94457.38;5111230;28;20028;-74
2023/03/22 00:29:02;;;;;;;6.93;5.95;;;;;;;8.58;81.07;94455.75;5108968;28;20035;-74
2023/03/22 00:31:28;;;;;;;7.85;6.85;;;;;;;8.56;80.65;94443.88;5111313;28;20023;-74
2023/03/22 00:33:53;;;;;;;6.45;5.68;;;;;;;8.63;80.35;94442.41;5110974;28;20028;-74
2023/03/22 00:36:19;;;;;;;7.45;5.47;;;;;;;8.55;79.49;94437.84;5093954;28;20019;-74
2023/03/22 00:38:44;;;;;;;7.53;5.53;;;;;;;8.59;79.95;94452.22;5110189;28;20028;-74
2023/03/22 00:41:09;;;;;;;7.47;5.55;;;;;;;8.65;79.55;94446.53;5111105;28;20035;-74
2023/03/22 00:43:35;;;;;;;7.63;5.40;;;;;;;8.59;79.66;94439.25;5110285;28;20079;-74
2023/03/22 00:46:00;;;;;;;6.72;5.60;;;;;;;8.50;79.72;94409.75;5110962;28;20063;-74
2023/03/22 00:48:26;;;;;;;5.70;4.88;;;;;;;8.72;79.65;94444.28;5110059;28;20047;-74
2023/03/22 00:50:51;;;;;;;7.30;5.45;;;;;;;8.23;79.86;94388.66;5110460;28;20444;-74
2023/03/22 00:53:17;;;;;;;8.02;5.68;;;;;;;8.54;80.15;94443.97;5111045;28;20447;-74
2023/03/22 00:55:42;;;;;;;6.20;4.85;;;;;;;8.47;80.54;94428.13;5110534;28;20378;-74
2023/03/22 00:58:08;;;;;;;6.57;4.57;;;;;;;8.58;80.51;94434.19;5092789;28;20035;-74
2023/03/22 01:00:33;;;;;;;6.07;4.88;;;;;;;8.46;80.74;94430.84;5111809;28;20027;-74
2023/03/22 01:03:03;;;;;;;6.25;4.05;;;;;;;8.55;80.59;94439.63;5093786;28;20032;-74
2023/03/22 01:05:32;;;;;;;5.43;4.20;;;;;;;8.48;80.46;94426.34;5092969;28;20104;-75
2023/03/22 01:08:07;;;;;;;3.80;3.13;;;;;;;8.50;80.07;94417.53;5093508;28;20106;-74
2023/03/22 01:10:37;;;;;;;4.28;3.33;;;;;;;8.46;80.32;94403.16;5094302;28;20417;-74
2023/03/22 01:13:02;;;;;;;5.68;2.92;;;;;;;8.55;80.42;94424.91;5093328;28;20031;-74
2023/03/22 01:15:28;;;;;;;5.43;3.30;;;;;;;8.55;80.35;94426.69;5109211;28;20051;-74
2023/03/22 01:17:53;;;;;;;4.03;2.80;;;;;;;8.58;80.28;94429.00;5109939;28;20077;-75
2023/03/22 01:20:19;;;;;;;5.13;3.30;;;;;;;8.53;80.06;94426.81;5093605;28;20023;-74
2023/03/22 01:22:44;;;;;;;6.43;3.90;;;;;;;8.50;79.61;94416.72;5110356;28;20059;-74
2023/03/22 01:25:10;;;;;;;4.72;3.50;;;;;;;8.55;80.10;94413.72;5109194;28;20039;-74
2023/03/22 01:27:36;;;;;;;4.05;3.35;;;;;;;8.54;79.63;94414.69;5111492;28;20034;-74
2023/03/22 01:30:02;;;;;;;3.60;2.88;;;;;;;8.48;79.86;94416.81;5110007;28;20031;-74
2023/03/22 01:32:28;;;;;;;6.22;3.70;;;;;;;8.27;79.98;94397.81;5108911;28;20059;-74
2023/03/22 01:34:53;;;;;;;5.28;4.00;;;;;;;8.37;79.98;94409.06;5092949;28;20038;-74
2023/03/22 01:37:20;;;;;;;6.20;4.15;;;;;;;8.35;80.26;94405.78;5093245;28;20035;-74
2023/03/22 01:39:46;;;;;;;6.82;4.18;;;;;;;8.25;79.18;94395.34;5093550;28;20034;-74
2023/03/22 01:42:13;;;;;;;5.43;3.75;;;;;;;8.41;79.42;94414.84;5109103;28;20024;-74
2023/03/22 01:44:41;;;;;;;6.57;4.00;;;;;;;8.36;79.52;94414.34;5092772;28;20023;-74
2023/03/22 01:47:07;;;;;;;5.40;4.15;;;;;;;8.29;79.14;94393.34;5109801;28;20040;-74
2023/03/22 01:49:33;;;;;;;6.65;4.38;;;;;;;8.34;79.23;94401.56;5092969;28;20035;-74
2023/03/22 01:52:05;;;;;;;5.13;4.00;;;;;;;8.33;79.42;94404.25;5110152;28;20035;-74
2023/03/22 01:54:35;;;;;;;5.68;3.97;;;;;;;8.29;80.21;94408.88;5108770;28;20409;-74
2023/03/22 01:57:00;;;;;;;6.78;4.45;;;;;;;8.17;80.12;94420.19;5109741;28;20327;-74
2023/03/22 01:59:26;;;;;;;5.65;3.78;;;;;;;8.23;80.25;94415.34;5108913;28;20028;-74
2023/03/22 02:01:51;;;;;;;6.18;4.20;;;;;;;8.27;79.50;94410.75;5111842;28;20033;-74
2023/03/22 02:04:24;;;;;;;7.03;5.15;;;;;;;8.15;79.55;94401.38;5109665;28;20489;-74
2023/03/22 02:06:53;;;;;;;6.78;4.65;;;;;;;8.23;79.49;94409.34;5110129;28;20501;-74
2023/03/22 02:09:20;;;;;;;6.85;4.65;;;;;;;8.16;79.94;94409.03;5083760;28;20046;-74
2023/03/22 02:11:50;;;;;;;7.13;4.72;;;;;;;8.21;79.88;94419.81;5089723;28;20610;-74
2023/03/22 02:14:34;;;;;;;5.85;4.43;;;;;;;8.16;80.24;94414.22;5105394;28;20043;-74
2023/03/22 02:17:21;;;;;;;7.97;5.82;;;;;;;8.15;80.29;94416.91;5107877;28;20092;-74
2023/03/22 02:20:09;;;;;;;6.07;5.32;;;;;;;8.09;80.59;94418.22;5107230;28;20030;-74
2023/03/22 02:22:56;;;;;;;6.13;4.28;;;;;;;8.20;80.21;94417.38;5103357;28;20563;-74
2023/03/22 02:26:05;;;;;;;4.82;3.90;;;;;;;8.15;79.89;94415.13;5105949;28;20152;-74
2023/03/22 02:28:39;;;;;;;5.47;4.18;;;;;;;8.07;80.09;94420.91;5073380;28;20134;-74
2023/03/22 02:31:23;;;;;;;4.82;4.00;;;;;;;8.07;80.56;94420.09;5089050;28;20164;-74
2023/03/22 02:34:50;;;;;;;5.22;3.60;;;;;;;8.13;80.24;94413.63;5106852;28;20027;-75
2023/03/22 02:37:22;;;;;;;5.25;3.60;;;;;;;8.21;80.13;94422.41;5002166;28;20120;-74
2023/03/22 02:39:52;;;;;;;6.20;3.97;;;;;;;8.26;79.96;94425.44;5112138;28;20032;-74
2023/03/22 02:42:21;;;;;;;5.43;3.87;;;;;;;8.18;80.23;94430.41;5092806;28;20035;-75
2023/03/22 02:44:59;;;;;;;5.53;3.95;;;;;;;8.21;80.12;94431.94;5107726;28;21002;-74
2023/03/22 02:47:37;;;;;;;5.57;3.65;;;;;;;8.14;80.02;94428.22;5107509;28;20035;-74
2023/03/22 02:50:27;;;;;;;6.05;3.70;;;;;;;8.09;80.86;94432.91;5093759;28;20038;-74
2023/03/22 02:53:04;;;;;;;4.53;3.58;;;;;;;8.17;80.87;94440.91;5110285;28;20028;-74
2023/03/22 02:55:57;;;;;;;4.22;3.60;;;;;;;8.13;80.93;94445.47;5110457;27;20039;-74
2023/03/22 02:58:28;;;;;;;4.57;3.33;;;;;;;8.16;80.32;94437.50;5107530;28;20027;-74
2023/03/22 03:00:59;;;;;;;4.10;3.50;;;;;;;8.18;80.47;94437.38;5092643;28;20559;-74
2023/03/22 03:03:28;;;;;;;4.57;3.70;;;;;;;8.24;79.33;94429.09;5075943;28;20061;-74
2023/03/22 03:05:56;;;;;;;4.15;3.25;;;;;;;8.26;79.21;94417.69;5093242;28;20146;-74
2023/03/22 03:08:22;;;;;;;4.40;3.42;;;;;;;8.36;78.09;94441.09;5089917;28;20027;-74
2023/03/22 03:10:48;;;;;;;4.38;3.78;;;;;;;8.29;78.60;94435.56;5092259;28;20036;-74
2023/03/22 03:13:14;;;;;;;4.40;3.58;;;;;;;8.14;79.30;94423.03;5107659;28;20528;-74
2023/03/22 03:15:42;;;;;;;4.10;2.95;;;;;;;8.20;79.53;94430.31;5072134;28;20040;-74
2023/03/22 03:18:12;;;;;;;4.05;3.38;;;;;;;8.28;79.44;94435.69;5091733;28;20020;-74
2023/03/22 03:20:53;;;;;;;3.70;3.25;;;;;;;8.22;79.84;94443.94;5107306;27;20509;-74
2023/03/22 03:23:23;;;;;;;5.28;3.47;;;;;;;8.07;80.14;94435.63;5094758;28;20027;-74
2023/03/22 03:26:08;;;;;;;4.05;3.13;;;;;;;8.04;80.43;94441.84;5108855;28;20058;-74
2023/03/22 03:28:48;;;;;;;4.45;3.53;;;;;;;8.07;80.03;94446.78;5096066;28;20111;-75
2023/03/22 03:31:35;;;;;;;3.90;3.17;;;;;;;8.13;80.20;94436.91;5112374;28;20036;-74
2023/03/22 03:34:07;;;;;;;4.50;3.22;;;;;;;8.05;79.90;94438.34;5113752;28;20024;-74
2023/03/22 03:36:33;;;;;;;4.65;3.35;;;;;;;8.10;79.65;94437.16;5112549;28;20058;-74
2023/03/22 03:38:59;;;;;;;4.30;2.97;;;;;;;8.09;79.14;94444.09;5094890;28;20409;-74
2023/03/22 03:41:27;;;;;;;6.07;3.30;;;;;;;8.06;80.01;94439.16;5095151;28;20122;-74
2023/03/22 03:43:53;;;;;;;5.43;3.50;;;;;;;8.12;78.94;94438.66;5111934;28;20089;-74
2023/03/22 03:46:19;;;;;;;4.53;3.10;;;;;;;8.11;79.52;94447.38;5111285;27;20049;-74
2023/03/22 03:48:46;;;;;;;3.97;3.15;;;;;;;8.01;80.34;94451.63;5110433;28;20035;-74
2023/03/22 03:51:12;;;;;;;3.58;2.50;;;;;;;8.14;78.36;94459.25;5078083;28;20034;-74
2023/03/22 03:53:37;;;;;;;4.93;2.88;;;;;;;8.06;78.95;94454.69;5111786;28;20028;-74
2023/03/22 03:56:03;;;;;;;4.35;2.58;;;;;;;8.09;79.09;94448.44;5111969;28;20023;-74
2023/03/22 03:58:29;;;;;;;3.47;2.58;;;;;;;7.98;79.02;94436.34;5111559;28;20023;-75
2023/03/22 04:00:55;;;;;;;3.80;2.70;;;;;;;7.92;79.04;94436.84;5111759;28;20035;-74
2023/03/22 04:03:20;;;;;;;3.28;2.20;;;;;;;8.12;78.77;94458.56;5094958;28;20037;-74
2023/03/22 04:05:46;;;;;;;3.40;2.47;;;;;;;7.96;79.07;94449.38;5112053;28;20056;-74
2023/03/22 04:08:11;;;;;;;3.35;2.40;;;;;;;7.98;79.72;94444.09;5077894;28;20031;-74
2023/03/22 04:10:37;;;;;;;3.20;2.40;;;;;;;7.97;78.66;94440.72;5111588;28;20040;-74
2023/03/22 04:13:02;;;;;;;3.22;2.30;;;;;;;7.98;79.23;94450.09;5094659;28;20504;-75
2023/03/22 04:15:28;;;;;;;4.93;2.60;;;;;;;8.00;79.37;94455.97;5111300;28;20452;-75
2023/03/22 04:17:53;;;;;;;3.22;2.28;;;;;;;8.00;79.23;94461.16;5094478;28;20035;-74
2023/03/22 04:20:19;;;;;;;3.10;2.40;;;;;;;7.96;79.25;94462.31;5113114;28;20404;-74
2023/03/22 04:22:45;;;;;;;3.65;2.55;;;;;;;7.85;78.82;94444.22;5111144;28;20028;-74
2023/03/22 04:25:12;;;;;;;4.20;2.60;;;;;;;7.90;78.93;94472.34;5094655;28;20031;-74
2023/03/22 04:27:38;;;;;;;3.65;2.83;;;;;;;7.86;79.59;94474.34;5107511;27;20031;-74
2023/03/22 04:30:11;;;;;;;3.80;2.63;;;;;;;7.91;79.53;94476.56;5072929;28;20413;-75
2023/03/22 04:32:43;;;;;;;4.15;2.60;;;;;;;7.74;79.44;94454.59;5074550;28;20174;-76
2023/03/22 04:35:09;;;;;;;3.15;2.33;;;;;;;7.94;79.45;94477.16;5057502;28;20043;-75
2023/03/22 04:37:34;;;;;;;4.47;3.25;;;;;;;7.78;79.98;94471.53;5076784;28;20032;-74
2023/03/22 04:39:59;;;;;;;5.00;3.03;;;;;;;7.90;79.51;94483.50;5109673;28;20036;-74
2023/03/22 04:42:25;;;;;;;4.05;2.88;;;;;;;7.64;79.75;94454.50;5112309;28;20413;-74
2023/03/22 04:44:51;;;;;;;5.20;2.97;;;;;;;7.82;79.83;94483.25;5111768;28;20054;-75
2023/03/22 04:47:17;;;;;;;3.28;2.58;;;;;;;7.87;79.89;94481.16;5080952;28;20035;-76
2023/03/22 04:49:43;;;;;;;3.53;2.80;;;;;;;7.71;80.20;94460.00;5092376;28;20039;-74
2023/03/22 04:52:08;;;;;;;3.28;2.58;;;;;;;7.89;80.58;94484.44;5109339;28;20111;-74
2023/03/22 04:54:34;;;;;;;3.83;2.53;;;;;;;7.81;80.49;94477.28;5110518;27;20592;-74
2023/03/22 04:56:59;;;;;;;3.70;2.88;;;;;;;7.91;80.30;94487.75;5093921;28;20027;-74
2023/03/22 04:59:25;;;;;;;4.32;2.88;;;;;;;7.93;79.94;94493.59;5126730;27;20034;-76
2023/03/22 05:01:50;;;;;;;3.22;2.50;;;;;;;7.88;79.75;94494.91;5111330;28;20471;-74
2023/03/22 05:04:16;;;;;;;3.65;2.67;;;;;;;7.90;80.48;94493.84;5094074;28;20055;-74
2023/03/22 05:06:41;;;;;;;4.65;2.70;;;;;;;7.94;80.46;94495.28;5109105;28;20390;-74
2023/03/22 05:09:07;;;;;;;4.45;2.80;;;;;;;7.81;80.06;94477.28;5086274;28;20413;-74
2023/03/22 05:11:33;;;;;;;3.35;2.78;;;;;;;7.97;80.39;94507.97;5073574;28;20359;-75
2023/03/22 05:13:58;;;;;;;4.05;3.03;;;;;;;7.96;80.17;94511.47;5063762;28;20051;-75
2023/03/22 05:16:24;;;;;;;3.83;3.05;;;;;;;7.93;80.01;94501.38;5091913;28;20036;-75
2023/03/22 05:18:53;;;;;;;4.68;3.60;;;;;;;8.03;79.35;94501.50;5110464;28;20032;-75
2023/03/22 05:21:20;;;;;;;3.95;3.00;;;;;;;7.98;79.74;94506.19;5109993;28;20036;-75
2023/03/22 05:23:46;;;;;;;5.40;4.00;;;;;;;7.98;79.73;94509.59;5093659;28;20032;-75
2023/03/22 05:26:14;;;;;;;5.13;3.45;;;;;;;7.91;80.21;94498.09;5092739;28;20205;-76
2023/03/22 05:28:39;;;;;;;4.28;3.33;;;;;;;7.98;80.04;94501.84;5109751;28;20084;-75
2023/03/22 05:31:07;;;;;;;4.18;3.20;;;;;;;8.10;80.00;94517.34;5106375;28;20036;-75
2023/03/22 05:33:33;;;;;;;4.20;3.30;;;;;;;7.95;79.69;94496.09;5106637;28;20024;-76
2023/03/22 05:35:59;;;;;;;4.95;2.92;;;;;;;8.02;80.10;94518.78;5109824;28;20521;-75
2023/03/22 05:38:25;;;;;;;5.60;4.13;;;;;;;7.98;80.72;94519.94;5092866;28;20043;-75
2023/03/22 05:40:50;;;;;;;4.40;3.10;;;;;;;8.03;80.50;94510.06;5093145;28;20050;-75
2023/03/22 05:43:16;;;;;;;4.70;3.40;;;;;;;8.00;80.62;94515.47;5086235;28;20386;-75
2023/03/22 05:45:41;;;;;;;4.63;3.50;;;;;;;7.90;80.24;94496.44;5076144;28;20398;-75
2023/03/22 05:48:06;;;;;;;4.93;3.88;;;;;;;7.96;80.74;94511.47;5104696;28;20024;-75
2023/03/22 05:50:32;;;;;;;5.50;3.65;;;;;;;8.18;80.42;94525.34;5091640;28;20467;-75
2023/03/22 05:52:58;;;;;;;6.93;3.80;;;;;;;8.03;80.36;94512.66;5091776;28;20028;-75
2023/03/22 05:55:24;;;;;;;4.82;3.83;;;;;;;8.13;80.87;94522.28;5076314;28;20101;-75
2023/03/22 05:57:52;;;;;;;4.40;3.72;;;;;;;8.25;80.16;94526.50;5111191;28;20023;-75
2023/03/22 06:00:18;;;;;;;4.97;3.72;;;;;;;8.15;79.62;94539.34;5109162;28;20027;-75
2023/03/22 06:02:45;;;;;;;4.82;3.75;;;;;;;8.19;80.06;94542.50;5108801;28;20031;-75
2023/03/22 06:05:12;;;;;;;4.80;3.92;;;;;;;8.16;80.12;94541.00;5109251;28;20043;-75
2023/03/22 06:07:38;;;;;;;5.57;3.90;;;;;;;8.22;79.51;94543.09;5093053;28;20032;-75
2023/03/22 06:10:04;;;;;;;5.25;4.20;;;;;;;8.25;79.49;94542.03;5092078;28;20091;-75
2023/03/22 06:12:30;;;;;;;5.22;3.95;;;;;;;8.19;79.35;94524.38;5114155;28;20074;-75
2023/03/22 06:14:55;;;;;;;8.25;5.53;;;;;;;8.26;79.71;94554.03;5113437;28;20485;-75
2023/03/22 06:17:21;;;;;;;5.10;4.00;;;;;;;8.29;78.91;94546.03;5096971;28;20546;-75
2023/03/22 06:19:46;;;;;;;5.22;4.10;;;;;;;8.10;78.85;94519.94;5129545;27;20031;-75
2023/03/22 06:22:12;;;;;;;5.85;4.55;;;;;;;8.37;79.54;94561.78;5129282;27;20088;-75
2023/03/22 06:24:39;;;;;;;6.13;4.25;;;;;;;8.36;79.99;94554.97;5113715;28;20437;-75
2023/03/22 06:27:05;;;;;;;6.40;4.28;;;;;;;8.39;80.32;94548.75;5096443;28;20524;-75
2023/03/22 06:29:31;;;;;;;4.97;4.45;;;;;;;8.42;80.59;94556.28;5112399;28;20039;-75
2023/03/22 06:31:57;;;;;;;5.20;4.35;;;;;;;8.36;80.42;94544.63;5113619;28;20024;-75
2023/03/22 06:34:22;;;;;;;7.07;4.85;;;;;;;8.44;80.63;94557.81;5096477;28;20034;-75
2023/03/22 06:36:47;;;;;;;8.35;5.82;;;;;;;8.43;80.75;94553.56;5093107;28;20043;-75
2023/03/22 06:39:13;;;;;;;5.85;5.07;;;;;;;8.53;80.09;94556.25;5112617;28;20027;-75
2023/03/22 06:41:38;;;;;;;6.47;5.03;;;;;;;8.51;79.45;94555.56;5112467;28;20126;-75
2023/03/22 06:44:04;;;;;;;6.78;5.70;;;;;;;8.53;80.06;94552.84;5111244;28;20023;-75
2023/03/22 06:46:29;;;;;;;6.45;4.93;;;;;;;8.44;80.60;94547.47;5113628;28;20489;-75
2023/03/22 06:48:55;;;;;;;5.65;4.88;;;;;;;8.53;80.38;94561.44;5114540;28;20038;-75
2023/03/22 06:51:20;;;;;;;6.38;5.32;;;;;;;8.48;79.85;94542.84;5114072;28;20031;-75
2023/03/22 06:53:47;;;;;;;6.18;5.28;;;;;;;8.58;79.98;94542.94;5093120;28;20088;-75
2023/03/22 06:56:12;;;;;;;6.53;5.10;;;;;;;8.74;79.62;94566.69;5121846;27;20028;-75
2023/03/22 06:58:38;;;;;;;6.68;5.28;;;;;;;8.68;79.43;94549.03;5113620;28;20108;-75
2023/03/22 07:01:03;;;;;;;7.13;5.10;;;;;;;8.67;79.26;94552.59;5112551;28;20080;-75
2023/03/22 07:03:29;;;;;;;7.47;6.53;;;;;;;8.81;78.78;94577.38;5095470;28;20155;-75
2023/03/22 07:06:01;;;;;;;9.15;6.80;;;;;;;8.79;78.52;94572.31;5112359;28;20539;-75
2023/03/22 07:08:27;;;;;;;13.32;8.15;;;;;;;8.86;77.95;94567.47;5110362;28;20439;-75
2023/03/22 07:10:52;;;;;;;12.68;7.60;;;;;;;8.78;77.81;94555.16;5111319;28;20020;-75
2023/03/22 07:13:18;;;;;;;10.45;7.60;;;;;;;8.98;77.03;94583.81;5089936;28;20039;-75
2023/03/22 07:15:43;;;;;;;9.95;7.50;;;;;;;8.78;77.51;94557.72;5109561;28;20035;-75
2023/03/22 07:18:09;;;;;;;10.90;7.40;;;;;;;8.98;76.34;94583.81;5110553;28;20035;-75
2023/03/22 07:20:37;;;;;;;12.30;7.93;;;;;;;9.18;75.89;94598.56;5143473;27;20547;-75
2023/03/22 07:23:03;;;;;;;8.40;6.47;;;;;;;9.15;75.79;94599.63;5096007;28;20031;-75
2023/03/22 07:25:28;;;;;;;9.50;6.90;;;;;;;8.89;76.96;94585.38;5078365;28;20088;-75
2023/03/22 07:27:54;;;;;;;8.25;6.47;;;;;;;8.74;76.87;94587.41;5095201;28;20578;-75
2023/03/22 07:30:19;;;;;;;10.52;7.07;;;;;;;8.85;77.34;94604.69;5111543;28;20063;-74
2023/03/22 07:32:45;;;;;;;10.63;7.28;;;;;;;8.80;77.91;94610.22;5112421;28;20020;-75
2023/03/22 07:35:10;;;;;;;9.00;6.45;;;;;;;8.92;78.18;94606.66;5111953;28;20054;-75
2023/03/22 07:37:36;;;;;;;8.38;6.88;;;;;;;8.86;78.83;94595.94;5091805;28;20039;-76
2023/03/22 07:40:03;;;;;;;10.63;6.72;;;;;;;8.94;78.57;94615.16;5109839;28;20035;-76
2023/03/22 07:42:30;;;;;;;7.45;6.65;;;;;;;8.94;78.62;94616.91;5110928;27;20032;-76
2023/03/22 07:44:55;;;;;;;8.40;7.25;;;;;;;8.88;79.28;94618.19;5110849;28;20469;-80
2023/03/22 07:47:21;;;;;;;9.45;6.95;;;;;;;8.92;79.48;94613.63;5108355;28;20085;-78
2023/03/22 07:49:46;;;;;;;9.52;6.78;;;;;;;8.89;80.04;94619.88;5108475;27;20032;-80
2023/03/22 07:52:12;;;;;;;7.80;5.95;;;;;;;8.94;79.21;94616.91;5109447;28;20036;-79
2023/03/22 07:54:37;;;;;;;7.70;6.28;;;;;;;8.95;78.29;94619.38;5109990;28;20413;-79
2023/03/22 07:57:04;;;;;;;7.40;6.40;;;;;;;8.98;78.80;94620.09;5111535;28;20413;-79
2023/03/22 07:59:30;;;;;;;8.48;6.38;;;;;;;8.93;78.36;94610.91;5111804;28;20023;-80
2023/03/22 08:01:55;;;;;;;7.53;6.07;;;;;;;8.97;78.74;94618.41;5095548;28;20058;-79
2023/03/22 08:04:21;;;;;;;7.88;6.32;;;;;;;9.03;78.71;94615.38;5113620;28;20047;-80
2023/03/22 08:06:47;;;;;;;7.07;5.63;;;;;;;9.01;78.62;94617.25;5113337;28;20028;-78
2023/03/22 08:09:13;;;;;;;7.70;6.15;;;;;;;8.91;78.58;94593.81;5095281;28;20481;-79
2023/03/22 08:11:38;;;;;;;6.97;5.50;;;;;;;9.10;79.09;94614.72;5095035;28;20038;-79
2023/03/22 08:14:04;;;;;;;8.18;5.90;;;;;;;9.09;78.06;94617.47;5112151;28;20447;-80
2023/03/22 08:16:29;;;;;;;6.78;5.68;;;;;;;9.04;78.15;94623.00;5112006;28;20035;-80
2023/03/22 08:18:55;;;;;;;7.05;5.75;;;;;;;9.03;77.76;94610.19;5111842;28;20053;-80
2023/03/22 08:21:20;;;;;;;10.30;5.88;;;;;;;9.01;77.06;94606.88;5095094;28;20031;-79
2023/03/22 08:23:46;;;;;;;7.00;5.75;;;;;;;9.06;77.30;94615.94;5111868;28;20474;-79
2023/03/22 08:26:11;;;;;;;6.55;5.40;;;;;;;9.04;77.46;94612.63;5111797;28;20085;-79
2023/03/22 08:28:37;;;;;;;6.85;5.65;;;;;;;9.10;77.09;94616.50;5113094;28;20035;-79
2023/03/22 08:31:09;;;;;;;6.60;5.18;;;;;;;9.00;77.33;94600.88;5094905;28;20027;-79
2023/03/22 08:33:35;;;;;;;6.78;5.43;;;;;;;9.10;77.33;94617.31;5094359;28;20028;-80
2023/03/22 08:36:08;;;;;;;5.72;5.03;;;;;;;9.16;77.53;94632.41;5094743;28;20424;-79
2023/03/22 08:38:33;;;;;;;6.70;5.57;;;;;;;9.09;77.68;94615.69;5111915;28;20035;-79
2023/03/22 08:40:59;;;;;;;6.18;5.07;;;;;;;8.97;78.41;94575.22;5094906;28;20092;-79
2023/03/22 08:43:24;;;;;;;6.28;5.22;;;;;;;9.16;79.01;94616.84;5111497;28;20031;-79
2023/03/22 08:45:50;;;;;;;6.68;5.18;;;;;;;9.08;78.59;94613.22;5077514;28;20088;-79
2023/03/22 08:48:15;;;;;;;6.50;5.38;;;;;;;9.18;77.50;94637.44;5111507;28;20031;-79
2023/03/22 08:50:41;;;;;;;7.05;5.47;;;;;;;9.21;76.47;94639.78;5112648;28;20028;-80
2023/03/22 08:53:06;;;;;;;7.53;5.65;;;;;;;9.19;76.67;94636.50;5094700;28;20039;-80
2023/03/22 08:55:34;;;;;;;7.93;6.63;;;;;;;9.24;76.76;94623.16;5111133;28;20035;-79
2023/03/22 08:58:00;;;;;;;6.95;5.05;;;;;;;9.27;76.56;94633.28;5111283;28;20062;-79
2023/03/22 09:00:26;;;;;;;6.18;4.97;;;;;;;9.21;77.19;94639.78;5111540;28;20051;-79
2023/03/22 09:02:51;;;;;;;7.28;5.88;;;;;;;9.16;77.70;94631.56;5111229;28;20071;-79
2023/03/22 09:05:17;;;;;;;7.78;6.13;;;;;;;9.08;77.91;94623.56;5093757;28;20491;-79
2023/03/22 09:07:42;;;;;;;6.35;5.68;;;;;;;9.19;77.84;94641.66;5112357;28;20034;-79
2023/03/22 09:10:08;;;;;;;5.82;4.75;;;;;;;9.24;78.05;94634.34;5094371;28;20498;-80
2023/03/22 09:12:34;;;;;;;6.18;5.10;;;;;;;9.27;78.27;94643.66;5094194;28;20035;-79
2023/03/22 09:14:59;;;;;;;5.22;4.55;;;;;;;9.24;77.84;94642.13;5093898;28;20027;-79
2023/03/22 09:17:25;;;;;;;7.57;5.82;;;;;;;9.24;77.69;94641.31;5111141;28;20040;-79
2023/03/22 09:19:50;;;;;;;8.30;7.03;;;;;;;9.31;77.73;94640.72;5111128;28;20088;-79
2023/03/22 09:22:15;;;;;;;10.65;8.35;;;;;;;9.27;78.25;94633.28;5110861;28;20489;-79
2023/03/22 09:24:41;;;;;;;8.77;7.82;;;;;;;9.38;79.18;94639.25;5093780;28;20562;-79
2023/03/22 09:27:06;;;;;;;7.45;6.07;;;;;;;9.44;79.23;94637.13;5110951;28;20458;-79
2023/03/22 09:29:32;;;;;;;7.10;5.72;;;;;;;9.48;78.94;94643.72;5110731;28;20028;-79
2023/03/22 09:31:57;;;;;;;6.70;5.85;;;;;;;9.40;78.83;94647.72;5110544;28;20027;-79
2023/03/22 09:34:23;;;;;;;7.70;6.20;;;;;;;9.42;78.89;94644.19;5110816;28;20035;-79
2023/03/22 09:36:48;;;;;;;7.15;5.90;;;;;;;9.46;78.11;94635.22;5110942;28;20481;-79
2023/03/22 09:39:15;;;;;;;6.70;5.25;;;;;;;9.53;78.14;94636.38;5093483;28;20472;-79
2023/03/22 09:41:49;;;;;;;6.47;5.78;;;;;;;9.54;77.87;94648.41;5093668;28;20046;-79
2023/03/22 09:44:25;;;;;;;8.95;6.22;;;;;;;9.59;76.12;94639.28;5093579;28;20402;-79
2023/03/22 09:46:52;;;;;;;9.30;6.75;;;;;;;9.47;76.04;94644.63;5095576;28;20058;-78
2023/03/22 09:49:19;;;;;;;9.70;8.38;;;;;;;9.55;75.60;94647.44;5093724;28;20032;-79
2023/03/22 09:51:45;;;;;;;10.65;7.95;;;;;;;9.56;75.54;94642.13;5093916;28;20497;-78
2023/03/22 09:54:20;;;;;;;11.82;8.90;;;;;;;9.59;75.23;94651.44;5110062;28;20043;-79
2023/03/22 09:57:03;;;;;;;19.13;12.40;;;;;;;9.51;75.02;94641.69;5094577;28;20436;-79
2023/03/22 09:59:55;;;;;;;14.60;9.88;;;;;;;9.69;72.98;94654.91;5094686;28;20024;-79
2023/03/22 10:02:44;;;;;;;12.45;9.05;;;;;;;9.55;74.58;94648.25;5110315;28;20482;-78
2023/03/22 10:05:14;;;;;;;13.70;9.35;;;;;;;9.53;75.26;94649.34;5110306;28;20051;-78
2023/03/22 10:08:01;;;;;;;13.52;10.35;;;;;;;9.46;76.05;94653.38;5110417;28;20046;-79
2023/03/22 10:10:27;;;;;;;13.75;10.32;;;;;;;9.45;76.13;94662.13;5110218;28;20131;-79
2023/03/22 10:13:06;;;;;;;15.05;11.80;;;;;;;9.45;76.93;94657.75;5093759;28;20122;-79
2023/03/22 10:15:36;;;;;;;14.43;11.02;;;;;;;9.34;77.04;94665.56;5110241;28;20040;-79
2023/03/22 10:18:04;;;;;;;12.23;9.68;;;;;;;9.39;76.61;94669.44;5110342;28;20027;-79
2023/03/22 10:20:41;;;;;;;10.43;7.85;;;;;;;9.23;75.16;94663.81;5093071;28;20031;-79
2023/03/22 10:23:11;;;;;;;11.75;8.05;;;;;;;9.32;76.65;94651.91;5110342;28;20145;-78
2023/03/22 10:25:38;;;;;;;8.68;7.05;;;;;;;9.27;76.22;94654.84;5093613;28;20035;-79
2023/03/22 10:28:20;;;;;;;9.68;7.47;;;;;;;9.23;75.94;94645.69;5093436;28;20028;-79
2023/03/22 10:30:50;;;;;;;9.38;7.47;;;;;;;9.34;76.75;94666.38;5111724;28;20031;-79
2023/03/22 10:33:39;;;;;;;13.43;9.57;;;;;;;9.42;76.92;94667.50;5077183;28;20047;-79
2023/03/22 10:36:11;;;;;;;14.75;10.77;;;;;;;9.31;75.62;94660.63;5095320;28;20043;-79
2023/03/22 10:38:42;;;;;;;13.38;10.00;;;;;;;9.46;75.20;94658.56;5076256;28;20123;-79
2023/03/22 10:41:08;;;;;;;;;;;;;;;9.42;75.58;94660.59;5110579;28;20023;-79
2023/03/22 10:43:35;;;;;;;17.17;11.60;;;;;;;9.43;75.66;94659.63;5109879;28;20338;-78
2023/03/22 10:46:02;;;;;;;14.48;10.70;;;;;;;9.42;76.19;94657.16;5109841;28;20031;-80
2023/03/22 10:48:31;;;;;;;15.40;9.90;;;;;;;9.39;75.76;94668.63;5092815;28;20039;-78
2023/03/22 10:50:57;;;;;;;11.95;9.73;;;;;;;9.43;75.74;94658.81;5093363;28;20031;-79
2023/03/22 10:53:25;;;;;;;13.75;10.80;;;;;;;9.49;75.33;94660.91;5093187;28;20039;-79
2023/03/22 10:55:50;;;;;;;13.52;10.38;;;;;;;9.36;74.99;94643.75;5109923;28;20032;-79
2023/03/22 10:58:17;;;;;;;21.52;14.15;;;;;;;9.38;75.23;94651.41;5113055;28;20027;-80
2023/03/22 11:00:55;;;;;;;9.32;7.07;;;;;;;9.34;73.22;94660.38;5096642;28;20034;-79
2023/03/22 11:03:27;;;;;;;6.78;5.22;;;;;;;9.39;72.99;94659.06;5097941;28;20045;-79
2023/03/22 11:06:35;;;;;;;5.75;4.68;;;;;;;9.47;73.01;94660.19;5114725;28;20181;-79
2023/03/22 11:09:18;;;;;;;6.45;4.57;;;;;;;9.57;73.89;94658.50;5097560;28;20514;-79
2023/03/22 11:11:54;;;;;;;8.55;5.10;;;;;;;9.57;73.79;94654.16;5097620;28;20046;-79
2023/03/22 11:14:34;;;;;;;7.50;5.40;;;;;;;9.60;73.37;94646.13;5080081;28;20032;-79
2023/03/22 11:17:12;;;;;;;6.97;5.35;;;;;;;9.60;71.58;94645.28;5079904;28;20417;-78
2023/03/22 11:19:39;;;;;;;6.97;5.57;;;;;;;9.59;71.74;94646.25;5097705;28;20031;-78
2023/03/22 11:22:06;;;;;;;7.65;5.45;;;;;;;9.53;72.33;94644.16;5113324;28;20031;-78
2023/03/22 11:24:32;;;;;;;6.85;5.25;;;;;;;9.26;72.13;94629.88;5112903;28;20036;-78
2023/03/22 11:27:17;;;;;;;8.38;6.50;;;;;;;9.17;73.47;94617.66;5096323;28;20320;-77
2023/03/22 11:29:44;;;;;;;8.45;5.68;;;;;;;9.31;73.25;94640.72;5096244;28;20027;-78
2023/03/22 11:32:31;;;;;;;7.70;6.32;;;;;;;9.38;73.45;94635.84;5113020;28;20469;-78
2023/03/22 11:35:18;;;;;;;7.82;5.82;;;;;;;9.44;72.75;94643.13;5096077;28;20096;-78
2023/03/22 11:37:45;;;;;;;7.10;5.82;;;;;;;9.49;74.22;94643.56;5114110;28;20035;-78
2023/03/22 11:40:15;;;;;;;9.05;6.85;;;;;;;9.54;73.03;94648.41;5096274;28;20544;-78
2023/03/22 11:42:40;;;;;;;8.15;6.03;;;;;;;9.61;74.64;94641.75;5112555;28;20028;-78
2023/03/22 11:45:07;;;;;;;14.10;8.98;;;;;;;9.75;74.71;94641.47;5095877;28;20054;-78
2023/03/22 11:47:36;;;;;;;12.82;8.85;;;;;;;9.53;73.58;94608.69;5112993;28;20069;-78
2023/03/22 11:50:03;;;;;;;6.43;5.15;;;;;;;9.57;70.89;94615.25;5095954;28;20063;-78